Main page
METAR-TAF:

METAR-TAF

Airports :

Wellington International Airport

Wellington, New Zealand

latitude: 41-20S, longitude: 174-48E, elevation: 12 m

Current weather observation

The report was made 28 minutes ago, at 01:00 UTC
Wind 17 kt from the North
Temperature 17°C
Humidity 63%
Pressure 1032 hPa
Visibility 10 km or more

METAR: NZWN 190100Z AUTO 36017KT 9999 NCD 17/10 Q1032 NOSIG

Time: 13:28 (01:28 UTC)

Forecast

The report was made 2 hours and 24 minutes ago, at 23:04 UTC
Forecast valid from 19 at 00 UTC to 20 at 00 UTC
Wind 15 kt from the North/Northeast
Visibility 10 km or more
Few clouds at a height of 2500 ft
Becoming
from 19 at 04 UTC to 19 at 06 UTC
Wind 20 kt from the North with gusts up to 30 kt

TAF: NZWN 182304Z 1900/2000 02015KT 9999 FEW025 BECMG 1904/1906 01020G30KT

Weather observations and forecasts of more than 4000 airports (METAR and TAF reports).

The available stations are represented by yellow and red dots on the map.

Hover mouse over dot to see the name of the station.

Then click to see weather observations and forecasts.

To change the map : click on the green buttons with a black cross to zoom in, on the green button with a dash to zoom out, or on the green arrows for adjacent maps.


METAR-TAF: